createdAt,value
2019-03-01T00:01:28.858Z,45.03
2019-03-01T00:04:07.262Z,42.15
2019-03-01T00:06:58.010Z,47.65
2019-03-01T00:09:39.538Z,43.05
2019-03-01T00:12:45.573Z,43.35
2019-03-01T00:15:46.154Z,41.40
2019-03-01T00:18:41.209Z,41.00
2019-03-01T00:21:22.680Z,50.40
2019-03-01T00:24:10.480Z,46.80
2019-03-01T00:27:25.369Z,46.75
2019-03-01T00:30:50.717Z,45.43
2019-03-01T00:33:44.788Z,49.93
2019-03-01T00:37:10.167Z,44.63
2019-03-01T00:40:02.644Z,49.75
2019-03-01T00:42:51.659Z,47.45
2019-03-01T00:45:20.581Z,47.98
2019-03-01T00:47:49.488Z,43.43
2019-03-01T00:50:18.917Z,45.52
2019-03-01T00:52:47.771Z,45.60
2019-03-01T00:55:16.604Z,47.83
2019-03-01T00:57:48.447Z,44.60
2019-03-01T01:00:28.645Z,46.92
2019-03-01T01:02:57.548Z,42.08
2019-03-01T01:05:26.503Z,45.92
2019-03-01T01:07:55.315Z,44.30
2019-03-01T01:10:24.119Z,48.42
2019-03-01T01:12:52.927Z,46.37
2019-03-01T01:15:21.855Z,41.10
2019-03-01T01:17:50.787Z,40.60
2019-03-01T01:20:19.716Z,41.68
2019-03-01T01:22:48.672Z,43.83
2019-03-01T01:25:17.670Z,36.45
2019-03-01T01:27:46.664Z,31.65
2019-03-01T01:30:15.653Z,35.43
2019-03-01T01:32:44.645Z,32.90
2019-03-01T01:35:13.445Z,35.00
2019-03-01T01:37:42.349Z,48.80
2019-03-01T01:40:12.160Z,44.65
2019-03-01T01:42:41.120Z,42.15
2019-03-01T01:45:10.344Z,46.20
2019-03-01T01:47:39.388Z,50.35
2019-03-01T01:50:08.539Z,46.90
2019-03-01T01:52:37.821Z,30.95
2019-03-01T01:55:06.871Z,47.45
2019-03-01T01:57:35.733Z,46.13
2019-03-01T02:00:05.730Z,47.23
2019-03-01T02:02:34.600Z,54.03
2019-03-01T02:05:03.608Z,52.83
2019-03-01T02:07:32.561Z,48.85
2019-03-01T02:10:01.481Z,69.15
2019-03-01T02:12:30.585Z,49.23
2019-03-01T02:14:59.395Z,57.95
2019-03-01T02:17:28.507Z,52.78
2019-03-01T02:19:57.390Z,48.92
2019-03-01T02:22:26.244Z,53.45
2019-03-01T02:24:55.116Z,53.63
2019-03-01T02:27:28.899Z,53.68
2019-03-01T02:30:00.032Z,49.27
2019-03-01T02:32:41.649Z,55.52
2019-03-01T02:35:12.946Z,51.35
2019-03-01T02:37:41.866Z,52.88
2019-03-01T02:40:13.203Z,53.50
2019-03-01T02:42:42.083Z,51.13
2019-03-01T02:45:12.905Z,48.73
2019-03-01T02:47:41.670Z,41.55
2019-03-01T02:50:11.399Z,44.75
2019-03-01T02:52:40.409Z,47.88
2019-03-01T02:55:11.826Z,54.88
2019-03-01T02:57:40.628Z,47.15
2019-03-01T03:00:13.126Z,45.95
2019-03-01T03:02:42.091Z,49.75
2019-03-01T03:05:11.319Z,50.43
2019-03-01T03:07:59.297Z,46.02
2019-03-01T03:10:28.298Z,54.60
2019-03-01T03:12:59.866Z,35.88
2019-03-01T03:15:40.720Z,41.25
2019-03-01T03:18:09.682Z,45.23
2019-03-01T03:20:38.637Z,49.00
2019-03-01T03:23:07.519Z,52.20
2019-03-01T03:25:36.461Z,47.55
2019-03-01T03:28:05.617Z,51.58
2019-03-01T03:30:34.701Z,42.48
2019-03-01T03:33:03.579Z,48.10
2019-03-01T03:35:32.727Z,46.37
2019-03-01T03:38:01.638Z,46.18
2019-03-01T03:40:30.571Z,48.78
2019-03-01T03:42:59.431Z,44.20
2019-03-01T03:45:28.358Z,53.13
2019-03-01T03:47:57.333Z,43.75
2019-03-01T03:50:26.220Z,42.50
2019-03-01T03:52:55.200Z,44.85
2019-03-01T03:55:24.146Z,45.15
2019-03-01T03:57:53.261Z,47.35
2019-03-01T04:00:22.254Z,52.38
2019-03-01T04:02:51.159Z,48.73
2019-03-01T04:05:20.207Z,54.38
2019-03-01T04:07:49.252Z,46.70
2019-03-01T04:10:18.231Z,45.85
2019-03-01T04:12:47.256Z,44.00
2019-03-01T04:15:16.414Z,52.10
2019-03-01T04:17:45.467Z,52.45
2019-03-01T04:20:16.199Z,49.75
2019-03-01T04:22:45.306Z,53.48
2019-03-01T04:25:14.243Z,54.90
2019-03-01T04:27:43.168Z,45.78
2019-03-01T04:30:14.026Z,48.80
2019-03-01T04:32:42.850Z,47.45
2019-03-01T04:35:11.958Z,50.60
2019-03-01T04:37:40.976Z,54.50
2019-03-01T04:40:11.169Z,51.25
2019-03-01T04:42:40.423Z,56.40
2019-03-01T04:45:10.709Z,60.60
2019-03-01T04:47:39.816Z,58.25
2019-03-01T04:50:09.570Z,60.88
2019-03-01T04:52:39.084Z,47.25
2019-03-01T04:55:16.264Z,51.55
2019-03-01T04:57:45.256Z,54.13
2019-03-01T05:00:19.019Z,52.48
2019-03-01T05:02:47.996Z,57.27
2019-03-01T05:05:17.438Z,49.00
2019-03-01T05:07:46.468Z,48.30
2019-03-01T05:10:15.620Z,60.78
2019-03-01T05:12:44.886Z,49.35
2019-03-01T05:15:16.022Z,48.23
2019-03-01T05:17:45.086Z,42.43
2019-03-01T05:20:14.630Z,44.58
2019-03-01T05:22:43.642Z,48.98
2019-03-01T05:25:12.663Z,53.35
2019-03-01T05:27:41.648Z,47.20
2019-03-01T05:30:12.245Z,45.58
2019-03-01T05:32:41.196Z,50.88
2019-03-01T05:35:10.278Z,42.38
2019-03-01T05:37:42.319Z,46.35
2019-03-01T05:40:12.273Z,46.92
2019-03-01T05:42:41.132Z,40.08
2019-03-01T05:45:13.095Z,56.18
2019-03-01T05:47:45.808Z,52.10
2019-03-01T05:50:15.421Z,54.98
2019-03-01T05:52:44.928Z,53.28
2019-03-01T05:55:14.116Z,66.35
2019-03-01T05:58:24.943Z,57.35
2019-03-01T06:00:54.007Z,59.30
2019-03-01T06:03:48.229Z,49.85
2019-03-01T06:06:19.948Z,63.17
2019-03-01T06:09:29.934Z,54.48
2019-03-01T06:12:20.508Z,55.20
2019-03-01T06:15:27.220Z,61.20
2019-03-01T06:18:43.862Z,61.95
2019-03-01T06:21:49.407Z,55.48
2019-03-01T06:24:58.795Z,69.00
2019-03-01T06:28:20.094Z,56.58
2019-03-01T06:31:28.851Z,60.92
2019-03-01T06:34:28.490Z,54.73
2019-03-01T06:37:22.664Z,59.33
2019-03-01T06:40:52.141Z,61.77
2019-03-01T06:43:47.357Z,63.38
2019-03-01T06:47:07.110Z,60.28
2019-03-01T06:50:13.309Z,54.03
2019-03-01T06:52:42.170Z,54.05
2019-03-01T06:55:32.593Z,63.55
2019-03-01T06:58:01.542Z,50.25
2019-03-01T07:00:33.477Z,58.80
2019-03-01T07:03:02.706Z,72.08
2019-03-01T07:05:31.792Z,67.17
2019-03-01T07:08:00.706Z,70.28
2019-03-01T07:10:29.548Z,72.78
2019-03-01T07:12:58.424Z,68.65
2019-03-01T07:15:27.423Z,76.22
2019-03-01T07:17:56.475Z,72.97
2019-03-01T07:20:25.338Z,79.25
2019-03-01T07:22:54.226Z,82.78
2019-03-01T07:25:23.393Z,78.72
2019-03-01T07:27:52.307Z,90.57
2019-03-01T07:30:21.174Z,68.35
2019-03-01T07:32:50.078Z,59.93
2019-03-01T07:35:19.079Z,65.50
2019-03-01T07:37:48.060Z,54.88
2019-03-01T07:40:17.024Z,59.40
2019-03-01T07:42:46.063Z,62.85
2019-03-01T07:45:15.074Z,73.17
2019-03-01T07:47:43.960Z,76.85
2019-03-01T07:50:12.983Z,66.25
2019-03-01T07:52:41.979Z,82.42
2019-03-01T07:55:11.045Z,78.55
2019-03-01T07:57:40.005Z,81.32
2019-03-01T08:00:14.272Z,79.55
2019-03-01T08:02:42.563Z,75.17
2019-03-01T08:05:12.264Z,69.20
2019-03-01T08:07:41.430Z,66.15
2019-03-01T08:10:11.423Z,65.92
2019-03-01T08:12:42.402Z,71.67
2019-03-01T08:15:13.000Z,62.15
2019-03-01T08:17:42.293Z,67.60
2019-03-01T08:20:13.386Z,55.98
2019-03-01T08:22:49.840Z,56.13
2019-03-01T08:25:33.118Z,60.58
2019-03-01T08:28:02.561Z,73.55
2019-03-01T08:30:31.328Z,96.40
2019-03-01T08:33:02.655Z,53.42
2019-03-01T08:35:32.160Z,50.90
2019-03-01T08:38:01.343Z,67.12
2019-03-01T08:40:30.290Z,70.87
2019-03-01T08:42:59.145Z,71.12
2019-03-01T08:45:29.727Z,86.17
2019-03-01T08:47:59.675Z,86.28
2019-03-01T08:50:28.978Z,84.75
2019-03-01T08:52:58.572Z,92.05
2019-03-01T08:55:27.872Z,82.80
2019-03-01T08:57:59.399Z,79.37
2019-03-01T09:00:29.176Z,80.07
2019-03-01T09:03:02.660Z,80.15
2019-03-01T09:05:31.607Z,75.63
2019-03-01T09:08:00.511Z,80.85
2019-03-01T09:10:32.725Z,83.82
2019-03-01T09:13:00.013Z,79.15
2019-03-01T09:15:28.974Z,76.17
2019-03-01T09:17:57.867Z,82.50
2019-03-01T09:20:26.779Z,77.75
2019-03-01T09:22:55.793Z,84.32
2019-03-01T09:25:24.703Z,83.27
2019-03-01T09:27:53.821Z,79.00
2019-03-01T09:30:23.823Z,82.42
2019-03-01T09:32:52.898Z,82.12
2019-03-01T09:35:46.788Z,92.92
2019-03-01T09:38:15.744Z,81.17
2019-03-01T09:40:47.982Z,85.47
2019-03-01T09:43:17.057Z,81.60
2019-03-01T09:45:48.755Z,86.12
2019-03-01T09:48:16.715Z,79.25
2019-03-01T09:50:45.810Z,82.00
2019-03-01T09:53:14.931Z,82.95
2019-03-01T09:55:43.836Z,80.13
2019-03-01T09:58:18.704Z,82.62
2019-03-01T10:00:56.151Z,97.90
2019-03-01T10:03:21.247Z,89.67
2019-03-01T10:05:50.327Z,88.70
2019-03-01T10:08:19.220Z,93.92
2019-03-01T10:10:48.237Z,89.70
2019-03-01T10:13:17.321Z,89.47
2019-03-01T10:15:46.302Z,75.90
2019-03-01T10:18:22.812Z,86.47
2019-03-01T10:20:51.947Z,91.20
2019-03-01T10:23:21.047Z,101.40
2019-03-01T10:25:52.945Z,90.83
2019-03-01T10:28:22.011Z,100.15
2019-03-01T10:30:51.280Z,103.15
2019-03-01T10:33:20.254Z,95.55
2019-03-01T10:35:49.611Z,95.57
2019-03-01T10:38:18.560Z,96.40
2019-03-01T10:40:47.605Z,105.70
2019-03-01T10:43:16.515Z,92.60
2019-03-01T10:45:45.508Z,102.55
2019-03-01T10:48:14.421Z,107.12
2019-03-01T10:50:43.442Z,109.63
2019-03-01T10:53:12.690Z,101.02
2019-03-01T10:55:41.628Z,97.13
2019-03-01T10:58:10.662Z,99.72
2019-03-01T11:00:39.606Z,114.63
2019-03-01T11:03:08.737Z,99.03
2019-03-01T11:05:37.765Z,101.67
2019-03-01T11:08:06.684Z,109.80
2019-03-01T11:10:36.976Z,115.40
2019-03-01T11:13:06.786Z,118.53
2019-03-01T11:15:35.795Z,129.72
2019-03-01T11:18:05.095Z,115.05
2019-03-01T11:20:34.101Z,106.97
2019-03-01T11:23:03.029Z,101.83
2019-03-01T11:25:32.007Z,111.50
2019-03-01T11:28:00.919Z,105.47
2019-03-01T11:30:30.754Z,104.97
2019-03-01T11:32:59.631Z,107.30
2019-03-01T11:35:29.101Z,115.17
2019-03-01T11:37:58.133Z,110.63
2019-03-01T11:40:29.630Z,117.00
2019-03-01T11:42:58.693Z,105.97
2019-03-01T11:45:27.570Z,107.20
2019-03-01T11:47:56.399Z,103.58
2019-03-01T11:50:25.458Z,98.23
2019-03-01T11:52:54.787Z,97.50
2019-03-01T11:55:23.907Z,99.67
2019-03-01T11:57:52.987Z,98.33
2019-03-01T12:00:22.350Z,101.70
2019-03-01T12:02:51.821Z,88.17
2019-03-01T12:05:21.276Z,87.27
2019-03-01T12:07:50.279Z,89.75
2019-03-01T12:10:21.451Z,84.47
2019-03-01T12:12:50.491Z,82.37
2019-03-01T12:15:19.692Z,74.45
2019-03-01T12:17:48.837Z,79.80
2019-03-01T12:20:19.372Z,74.80
2019-03-01T12:22:48.478Z,71.33
2019-03-01T12:25:17.740Z,67.05
2019-03-01T12:27:46.945Z,75.70
2019-03-01T12:30:20.575Z,70.55
2019-03-01T12:32:49.804Z,62.20
2019-03-01T12:35:18.897Z,66.02
2019-03-01T12:37:48.096Z,59.67
2019-03-01T12:40:19.975Z,63.28
2019-03-01T12:42:48.829Z,64.25
2019-03-01T12:45:17.811Z,66.45
2019-03-01T12:47:46.819Z,64.12
2019-03-01T12:50:15.898Z,58.35
2019-03-01T12:52:44.857Z,67.15
2019-03-01T12:55:16.136Z,65.28
2019-03-01T12:57:45.089Z,60.55
2019-03-01T13:00:20.023Z,56.05
2019-03-01T13:02:49.285Z,57.35
2019-03-01T13:05:18.330Z,57.53
2019-03-01T13:07:47.263Z,53.35
2019-03-01T13:10:18.568Z,52.27
2019-03-01T13:12:47.513Z,43.00
2019-03-01T13:15:16.546Z,41.80
2019-03-01T13:17:45.629Z,35.20
2019-03-01T13:20:15.684Z,35.55
2019-03-01T13:22:44.463Z,32.80
2019-03-01T13:25:15.554Z,33.28
2019-03-01T13:27:44.272Z,32.13
2019-03-01T13:30:15.679Z,28.30
2019-03-01T13:32:44.689Z,32.35
2019-03-01T13:35:14.325Z,34.05
2019-03-01T13:37:43.300Z,34.70
2019-03-01T13:40:13.670Z,27.05
2019-03-01T13:42:47.080Z,25.80
2019-03-01T13:45:15.745Z,25.20
2019-03-01T13:47:45.172Z,25.85
2019-03-01T13:50:14.999Z,23.65
2019-03-01T13:52:44.053Z,26.23
2019-03-01T13:55:14.788Z,19.45
2019-03-01T13:57:45.978Z,23.73
2019-03-01T14:00:16.845Z,18.50
2019-03-01T14:02:47.081Z,19.48
2019-03-01T14:05:17.447Z,20.30
2019-03-01T14:07:46.442Z,21.17
2019-03-01T14:10:17.018Z,20.80
2019-03-01T14:12:45.985Z,23.87
2019-03-01T14:15:16.236Z,20.30
2019-03-01T14:17:45.282Z,18.15
2019-03-01T14:20:19.511Z,16.75
2019-03-01T14:22:47.876Z,21.12
2019-03-01T14:25:17.505Z,18.30
2019-03-01T14:27:46.737Z,22.05
2019-03-01T14:30:19.741Z,20.23
2019-03-01T14:32:58.914Z,17.90
2019-03-01T14:35:28.054Z,17.82
2019-03-01T14:37:57.041Z,16.60
2019-03-01T14:40:25.904Z,18.25
2019-03-01T14:42:54.993Z,15.28
2019-03-01T14:45:25.584Z,19.77
2019-03-01T14:47:55.411Z,16.93
2019-03-01T14:50:25.243Z,37.63
2019-03-01T14:52:58.127Z,29.53
2019-03-01T14:55:29.320Z,15.50
2019-03-01T14:58:05.564Z,16.45
2019-03-01T15:00:51.003Z,15.72
2019-03-01T15:03:35.094Z,18.50
2019-03-01T15:06:04.846Z,19.17
2019-03-01T15:08:33.920Z,16.27
2019-03-01T15:11:07.997Z,14.43
2019-03-01T15:13:36.535Z,18.57
2019-03-01T15:16:06.051Z,12.50
2019-03-01T15:18:35.352Z,11.68
2019-03-01T15:21:04.587Z,13.93
2019-03-01T15:23:33.619Z,13.53
2019-03-01T15:26:02.441Z,13.55
2019-03-01T15:28:31.665Z,15.98
2019-03-01T15:31:00.614Z,10.75
2019-03-01T15:33:29.695Z,11.45
2019-03-01T15:35:58.875Z,16.05
2019-03-01T15:38:28.938Z,11.95
2019-03-01T15:40:58.059Z,11.28
2019-03-01T15:43:29.778Z,11.70
2019-03-01T15:45:58.213Z,12.70
2019-03-01T15:48:27.070Z,12.30
2019-03-01T15:50:59.141Z,14.95
2019-03-01T15:53:29.511Z,9.80
2019-03-01T15:55:58.707Z,12.80
2019-03-01T15:58:29.286Z,11.53
2019-03-01T16:00:58.323Z,9.98
2019-03-01T16:03:27.375Z,12.63
2019-03-01T16:05:56.211Z,15.53
2019-03-01T16:08:25.160Z,11.13
2019-03-01T16:10:54.260Z,11.83
2019-03-01T16:13:23.087Z,10.82
2019-03-01T16:15:52.188Z,13.30
2019-03-01T16:18:21.074Z,11.20
2019-03-01T16:20:50.056Z,10.55
2019-03-01T16:23:18.908Z,16.02
2019-03-01T16:25:47.936Z,9.95
2019-03-01T16:28:16.844Z,10.32
2019-03-01T16:30:45.719Z,12.15
2019-03-01T16:33:14.701Z,11.30
2019-03-01T16:35:43.656Z,13.22
2019-03-01T16:38:12.569Z,9.95
2019-03-01T16:40:41.475Z,9.58
2019-03-01T16:43:10.405Z,12.23
2019-03-01T16:45:45.282Z,9.73
2019-03-01T16:48:16.903Z,9.65
2019-03-01T16:50:45.419Z,9.55
2019-03-01T16:53:15.580Z,10.72
2019-03-01T16:55:44.563Z,8.35
2019-03-01T16:58:13.457Z,8.23
2019-03-01T17:00:42.584Z,8.48
2019-03-01T17:03:16.620Z,8.98
2019-03-01T17:05:42.407Z,11.10
2019-03-01T17:08:11.498Z,10.32
2019-03-01T17:10:40.463Z,8.00
2019-03-01T17:13:09.897Z,7.62
2019-03-01T17:15:38.919Z,8.88
2019-03-01T17:18:11.322Z,8.50
2019-03-01T17:20:38.723Z,9.55
2019-03-01T17:23:07.735Z,9.83
2019-03-01T17:25:36.975Z,8.80
2019-03-01T17:28:05.804Z,10.53
2019-03-01T17:30:35.598Z,9.28
2019-03-01T17:33:04.584Z,10.20
2019-03-01T17:35:33.708Z,9.88
2019-03-01T17:38:04.092Z,10.40
2019-03-01T17:40:33.570Z,11.00
2019-03-01T17:43:03.454Z,11.18
2019-03-01T17:45:32.444Z,15.75
2019-03-01T17:48:01.435Z,11.22
2019-03-01T17:50:30.403Z,12.10
2019-03-01T17:52:59.373Z,9.90
2019-03-01T17:55:28.333Z,11.80
2019-03-01T17:57:57.487Z,11.95
2019-03-01T18:00:31.801Z,10.53
2019-03-01T18:03:00.824Z,10.80
2019-03-01T18:05:29.772Z,10.80
2019-03-01T18:07:59.904Z,11.08
2019-03-01T18:10:32.070Z,11.08
2019-03-01T18:13:00.796Z,28.70
2019-03-01T18:15:29.925Z,17.42
2019-03-01T18:17:58.858Z,10.50
2019-03-01T18:20:28.986Z,11.78
2019-03-01T18:22:59.309Z,11.73
2019-03-01T18:25:28.488Z,14.10
2019-03-01T18:27:57.426Z,11.35
2019-03-01T18:30:26.464Z,10.58
2019-03-01T18:32:56.216Z,12.40
2019-03-01T18:35:25.333Z,8.85
2019-03-01T18:37:56.515Z,9.75
2019-03-01T18:40:27.570Z,10.93
2019-03-01T18:43:04.780Z,9.80
2019-03-01T18:45:33.703Z,8.68
2019-03-01T18:48:08.673Z,9.65
2019-03-01T18:50:36.761Z,9.48
2019-03-01T18:53:07.906Z,14.43
2019-03-01T18:55:37.360Z,10.08
2019-03-01T18:58:10.558Z,8.85
2019-03-01T19:00:42.092Z,9.25
2019-03-01T19:03:11.748Z,16.05
2019-03-01T19:05:41.322Z,9.20
2019-03-01T19:08:12.715Z,11.05
2019-03-01T19:10:43.016Z,13.70
2019-03-01T19:13:13.316Z,9.15
2019-03-01T19:15:43.430Z,8.78
2019-03-01T19:18:13.563Z,7.10
2019-03-01T19:20:52.848Z,7.70
2019-03-01T19:23:25.853Z,8.90
2019-03-01T19:25:57.878Z,10.63
2019-03-01T19:28:27.845Z,10.53
2019-03-01T19:30:59.202Z,10.55
2019-03-01T19:33:34.720Z,7.80
2019-03-01T19:36:09.151Z,12.90
2019-03-01T19:38:40.526Z,9.03
2019-03-01T19:41:12.679Z,11.25
2019-03-01T19:43:45.707Z,7.75
2019-03-01T19:46:15.721Z,9.15
2019-03-01T19:48:45.599Z,8.03
2019-03-01T19:51:14.944Z,9.50
2019-03-01T19:53:43.958Z,7.70
2019-03-01T19:56:13.504Z,7.92
2019-03-01T19:58:44.066Z,8.30
2019-03-01T20:01:14.664Z,8.88
2019-03-01T20:03:46.824Z,11.10
2019-03-01T20:06:33.622Z,13.45
2019-03-01T20:09:05.834Z,8.83
2019-03-01T20:11:38.293Z,8.35
2019-03-01T20:14:07.285Z,9.33
2019-03-01T20:16:37.198Z,8.93
2019-03-01T20:19:06.352Z,8.58
2019-03-01T20:21:35.649Z,8.03
2019-03-01T20:24:07.412Z,7.92
2019-03-01T20:26:36.545Z,8.40
2019-03-01T20:29:10.873Z,7.85
2019-03-01T20:31:41.798Z,8.17
2019-03-01T20:34:12.623Z,8.28
2019-03-01T20:36:41.864Z,10.32
2019-03-01T20:39:15.115Z,11.50
2019-03-01T20:41:46.298Z,8.03
2019-03-01T20:44:25.624Z,8.15
2019-03-01T20:46:54.732Z,10.13
2019-03-01T20:49:23.716Z,21.80
2019-03-01T20:51:52.591Z,10.93
2019-03-01T20:54:25.391Z,11.68
2019-03-01T20:56:52.752Z,8.20
2019-03-01T20:59:22.153Z,8.20
2019-03-01T21:01:51.078Z,9.95
2019-03-01T21:04:20.299Z,11.40
2019-03-01T21:06:49.409Z,12.58
2019-03-01T21:09:18.403Z,8.85
2019-03-01T21:11:47.432Z,8.00
2019-03-01T21:14:16.559Z,8.48
2019-03-01T21:16:45.784Z,8.95
2019-03-01T21:19:14.886Z,7.75
2019-03-01T21:21:43.789Z,8.40
2019-03-01T21:24:12.799Z,14.13
2019-03-01T21:26:41.816Z,9.80
2019-03-01T21:29:12.495Z,9.40
2019-03-01T21:31:41.956Z,9.83
2019-03-01T21:34:11.578Z,10.85
2019-03-01T21:36:41.739Z,7.20
2019-03-01T21:39:11.919Z,8.30
2019-03-01T21:41:41.431Z,9.48
2019-03-01T21:44:13.596Z,6.53
2019-03-01T21:46:43.328Z,7.22
2019-03-01T21:49:12.780Z,9.25
2019-03-01T21:51:41.918Z,8.25
2019-03-01T21:54:12.565Z,10.23
2019-03-01T21:56:55.818Z,8.08
2019-03-01T21:59:17.199Z,8.75
2019-03-01T22:01:49.392Z,16.75
2019-03-01T22:04:24.601Z,14.05
2019-03-01T22:07:05.957Z,12.28
2019-03-01T22:09:37.598Z,8.57
2019-03-01T22:12:09.251Z,8.70
2019-03-01T22:14:40.074Z,8.58
2019-03-01T22:17:10.389Z,8.35
2019-03-01T22:19:41.644Z,9.23
2019-03-01T22:22:10.616Z,9.35
2019-03-01T22:24:41.561Z,7.60
2019-03-01T22:27:10.380Z,8.30
2019-03-01T22:29:47.347Z,8.53
2019-03-01T22:32:14.756Z,10.93
2019-03-01T22:34:43.585Z,8.85
2019-03-01T22:37:12.444Z,10.32
2019-03-01T22:39:43.526Z,9.33
2019-03-01T22:42:15.126Z,13.38
2019-03-01T22:44:45.991Z,9.53
2019-03-01T22:47:16.955Z,9.55
2019-03-01T22:49:45.794Z,7.05
2019-03-01T22:52:15.215Z,8.58
2019-03-01T22:54:44.135Z,9.93
2019-03-01T22:57:12.958Z,7.95
2019-03-01T22:59:43.679Z,6.63
2019-03-01T23:02:15.179Z,8.45
2019-03-01T23:04:44.148Z,7.78
2019-03-01T23:07:13.556Z,8.73
2019-03-01T23:09:46.142Z,12.47
2019-03-01T23:12:15.308Z,13.53
2019-03-01T23:14:46.699Z,10.15
2019-03-01T23:17:17.844Z,10.85
2019-03-01T23:19:47.753Z,7.72
2019-03-01T23:22:17.384Z,8.63
2019-03-01T23:24:46.334Z,9.98
2019-03-01T23:27:15.263Z,11.05
2019-03-01T23:29:44.256Z,9.58
2019-03-01T23:32:15.527Z,9.60
2019-03-01T23:34:43.933Z,9.90
2019-03-01T23:37:12.856Z,11.12
2019-03-01T23:39:41.715Z,8.13
2019-03-01T23:42:10.625Z,10.10
2019-03-01T23:44:41.548Z,10.70
2019-03-01T23:47:10.169Z,7.62
2019-03-01T23:49:39.013Z,7.90
2019-03-01T23:52:07.976Z,8.95
2019-03-01T23:54:36.864Z,10.82
2019-03-01T23:57:06.918Z,9.70
2019-03-01T23:59:35.811Z,8.00
